createdAt,value
2019-03-28T00:02:50.940Z,23.27
2019-03-28T00:05:46.634Z,22.57
2019-03-28T00:08:42.359Z,22.13
2019-03-28T00:11:38.083Z,22.87
2019-03-28T00:14:33.397Z,21.60
2019-03-28T00:17:29.048Z,23.92
2019-03-28T00:20:25.558Z,22.98
2019-03-28T00:23:29.776Z,21.35
2019-03-28T00:26:30.330Z,22.13
2019-03-28T00:29:22.423Z,22.27
2019-03-28T00:32:18.091Z,22.45
2019-03-28T00:35:13.964Z,21.75
2019-03-28T00:38:09.968Z,21.62
2019-03-28T00:41:05.616Z,21.07
2019-03-28T00:44:01.116Z,20.92
2019-03-28T00:46:57.109Z,21.77
2019-03-28T00:49:52.285Z,21.95
2019-03-28T00:52:47.763Z,21.80
2019-03-28T00:55:43.162Z,21.52
2019-03-28T00:58:38.949Z,21.25
2019-03-28T01:01:34.626Z,21.45
2019-03-28T01:04:30.235Z,20.52
2019-03-28T01:07:25.967Z,21.48
2019-03-28T01:10:21.266Z,21.15
2019-03-28T01:13:16.864Z,21.45
2019-03-28T01:16:13.211Z,20.82
2019-03-28T01:19:08.731Z,20.63
2019-03-28T01:22:04.507Z,21.07
2019-03-28T01:25:01.643Z,20.97
2019-03-28T01:27:57.266Z,20.90
2019-03-28T01:30:52.607Z,22.05
2019-03-28T01:33:47.885Z,21.43
2019-03-28T01:36:43.132Z,21.45
2019-03-28T01:39:38.493Z,22.05
2019-03-28T01:42:34.393Z,24.30
2019-03-28T01:45:29.953Z,22.73
2019-03-28T01:48:25.567Z,24.02
2019-03-28T01:51:22.500Z,23.22
2019-03-28T01:54:18.224Z,23.90
2019-03-28T01:57:14.348Z,22.80
2019-03-28T02:00:10.441Z,23.62
2019-03-28T02:03:06.250Z,23.30
2019-03-28T02:06:03.101Z,21.25
2019-03-28T02:08:58.880Z,23.00
2019-03-28T02:11:54.663Z,22.35
2019-03-28T02:14:50.558Z,22.73
2019-03-28T02:17:46.563Z,22.17
2019-03-28T02:20:42.078Z,22.75
2019-03-28T02:23:37.675Z,22.95
2019-03-28T02:26:34.267Z,22.02
2019-03-28T02:29:30.140Z,20.92
2019-03-28T02:32:25.757Z,21.10
2019-03-28T02:35:22.165Z,21.90
2019-03-28T02:38:17.686Z,21.07
2019-03-28T02:41:13.527Z,21.00
2019-03-28T02:44:09.555Z,22.27
2019-03-28T02:47:05.581Z,22.10
2019-03-28T02:50:01.167Z,22.67
2019-03-28T02:52:57.182Z,20.80
2019-03-28T02:55:53.347Z,21.73
2019-03-28T02:58:49.113Z,21.25
2019-03-28T03:01:45.004Z,21.87
2019-03-28T03:04:41.021Z,21.57
2019-03-28T03:07:36.755Z,20.62
2019-03-28T03:10:32.333Z,22.13
2019-03-28T03:13:28.590Z,20.95
2019-03-28T03:16:24.363Z,20.90
2019-03-28T03:19:20.147Z,21.87
2019-03-28T03:22:16.733Z,22.15
2019-03-28T03:25:13.001Z,20.57
2019-03-28T03:28:08.943Z,20.72
2019-03-28T03:31:06.250Z,21.23
2019-03-28T03:34:01.980Z,20.82
2019-03-28T03:36:57.710Z,21.37
2019-03-28T03:39:53.224Z,20.17
2019-03-28T03:42:49.079Z,21.57
2019-03-28T03:45:44.885Z,20.05
2019-03-28T03:48:40.502Z,20.90
2019-03-28T03:51:36.470Z,19.57
2019-03-28T03:54:32.440Z,20.68
2019-03-28T03:57:28.093Z,20.35
2019-03-28T04:00:29.646Z,20.37
2019-03-28T04:03:25.197Z,20.08
2019-03-28T04:06:21.055Z,20.85
2019-03-28T04:09:16.950Z,21.50
2019-03-28T04:12:13.469Z,21.65
2019-03-28T04:15:08.987Z,21.55
2019-03-28T04:18:04.404Z,20.30
2019-03-28T04:21:00.800Z,18.55
2019-03-28T04:23:57.239Z,19.15
2019-03-28T04:26:52.939Z,19.90
2019-03-28T04:29:48.833Z,17.55
2019-03-28T04:32:44.534Z,16.12
2019-03-28T04:35:40.184Z,16.62
2019-03-28T04:38:37.973Z,16.93
2019-03-28T04:41:35.437Z,16.30
2019-03-28T04:44:31.244Z,16.15
2019-03-28T04:47:27.184Z,16.25
2019-03-28T04:50:22.848Z,14.95
2019-03-28T04:53:18.237Z,15.58
2019-03-28T04:56:17.258Z,14.78
2019-03-28T04:59:15.367Z,14.38
2019-03-28T05:02:17.115Z,14.45
2019-03-28T05:05:13.103Z,14.05
2019-03-28T05:08:10.506Z,15.13
2019-03-28T05:11:09.183Z,14.55
2019-03-28T05:14:05.701Z,15.03
2019-03-28T05:17:04.644Z,14.98
2019-03-28T05:20:13.449Z,15.23
2019-03-28T05:23:12.376Z,15.72
2019-03-28T05:26:13.949Z,14.45
2019-03-28T05:34:10.326Z,14.83
2019-03-28T05:38:12.364Z,14.68
2019-03-28T05:46:21.820Z,14.30
2019-03-28T05:49:47.745Z,13.32
2019-03-28T05:56:25.909Z,13.72
2019-03-28T05:59:30.852Z,12.33
2019-03-28T06:02:30.407Z,11.83
2019-03-28T06:05:31.695Z,13.88
2019-03-28T06:08:32.300Z,12.25
2019-03-28T06:12:01.179Z,12.18
2019-03-28T06:15:07.058Z,11.30
2019-03-28T06:22:47.080Z,11.03
2019-03-28T06:25:51.379Z,10.70
2019-03-28T06:28:51.835Z,10.20
2019-03-28T06:31:56.704Z,10.70
2019-03-28T06:34:57.613Z,10.50
2019-03-28T06:37:59.391Z,10.45
2019-03-28T06:41:06.955Z,9.87
2019-03-28T06:47:35.772Z,10.75
2019-03-28T06:50:33.082Z,10.43
2019-03-28T06:53:31.967Z,10.88
2019-03-28T06:56:28.360Z,10.65
2019-03-28T06:59:36.254Z,10.32
2019-03-28T07:02:23.420Z,11.17
2019-03-28T07:05:20.643Z,11.33
2019-03-28T07:08:37.270Z,10.93
2019-03-28T07:11:35.691Z,11.23
2019-03-28T07:14:55.229Z,12.15
2019-03-28T07:17:51.686Z,11.22
2019-03-28T07:20:48.309Z,10.60
2019-03-28T07:24:03.448Z,11.17
2019-03-28T07:27:20.856Z,10.83
2019-03-28T07:30:41.858Z,10.87
2019-03-28T07:33:40.779Z,11.47
2019-03-28T07:36:38.881Z,10.97
2019-03-28T07:39:36.667Z,11.73
2019-03-28T07:42:33.893Z,11.07
2019-03-28T07:46:07.029Z,11.27
2019-03-28T07:49:09.105Z,10.63
2019-03-28T07:52:06.164Z,12.40
2019-03-28T07:55:03.170Z,12.63
2019-03-28T07:58:09.183Z,11.50
2019-03-28T08:02:08.711Z,12.50
2019-03-28T08:05:25.478Z,11.40
2019-03-28T08:08:38.055Z,10.18
2019-03-28T08:12:24.622Z,9.30
2019-03-28T08:15:17.648Z,9.00
2019-03-28T08:18:29.859Z,8.27
2019-03-28T08:21:32.669Z,8.50
2019-03-28T08:24:38.577Z,9.60
2019-03-28T08:27:36.054Z,9.97
2019-03-28T08:30:45.457Z,10.45
2019-03-28T08:33:46.197Z,9.93
2019-03-28T08:36:42.524Z,10.93
2019-03-28T08:39:39.307Z,10.73
2019-03-28T08:42:37.333Z,10.15
2019-03-28T08:45:34.360Z,10.80
2019-03-28T08:48:30.785Z,10.30
2019-03-28T08:51:27.461Z,10.38
2019-03-28T08:54:23.821Z,11.40
2019-03-28T08:57:21.056Z,10.90
2019-03-28T09:00:17.382Z,10.55
2019-03-28T09:03:35.505Z,10.60
2019-03-28T09:07:01.906Z,11.03
2019-03-28T09:10:07.025Z,10.50
2019-03-28T09:13:08.439Z,11.10
2019-03-28T09:16:13.446Z,11.15
2019-03-28T09:19:17.775Z,11.07
2019-03-28T09:22:22.163Z,9.83
2019-03-28T09:25:24.675Z,10.43
2019-03-28T09:28:28.334Z,10.10
2019-03-28T09:31:28.679Z,10.13
2019-03-28T09:34:30.318Z,8.78
2019-03-28T09:37:29.802Z,9.30
2019-03-28T09:40:32.926Z,8.73
2019-03-28T09:43:32.569Z,8.40
2019-03-28T09:46:32.628Z,8.37
2019-03-28T09:49:34.099Z,9.10
2019-03-28T09:52:35.248Z,8.13
2019-03-28T09:55:36.455Z,8.48
2019-03-28T09:58:37.994Z,7.37
2019-03-28T10:01:49.888Z,8.53
2019-03-28T10:05:07.403Z,8.03
2019-03-28T10:08:42.494Z,8.00
2019-03-28T10:23:29.170Z,10.33
2019-03-28T10:27:40.639Z,9.83
2019-03-28T10:30:42.370Z,10.43
2019-03-28T10:33:40.482Z,9.77
2019-03-28T10:36:39.166Z,14.37
2019-03-28T10:39:38.849Z,10.83
2019-03-28T10:42:38.184Z,11.83
2019-03-28T10:46:05.250Z,10.25
2019-03-28T10:49:09.168Z,10.80
2019-03-28T10:56:50.563Z,11.70
2019-03-28T11:03:00.728Z,10.10
2019-03-28T11:09:42.043Z,10.28
2019-03-28T11:12:49.504Z,9.90
2019-03-28T11:15:45.696Z,10.30
2019-03-28T11:18:46.990Z,9.63
2019-03-28T11:22:12.539Z,8.60
2019-03-28T11:26:04.969Z,8.78
2019-03-28T11:34:32.262Z,8.63
2019-03-28T11:42:03.758Z,8.15
2019-03-28T11:46:13.900Z,9.20
2019-03-28T11:59:04.504Z,10.80
2019-03-28T12:02:19.048Z,10.35
2019-03-28T12:05:05.638Z,10.68
2019-03-28T12:08:08.139Z,10.73
2019-03-28T12:11:05.541Z,10.28
2019-03-28T12:14:01.371Z,9.67
2019-03-28T12:16:59.210Z,11.05
2019-03-28T12:19:56.237Z,10.20
2019-03-28T12:22:51.858Z,10.32
2019-03-28T12:25:47.486Z,9.78
2019-03-28T12:28:43.383Z,10.68
2019-03-28T12:31:39.734Z,10.00
2019-03-28T12:34:35.298Z,10.55
2019-03-28T12:37:30.999Z,11.30
2019-03-28T12:40:30.032Z,12.98
2019-03-28T12:43:26.085Z,13.68
2019-03-28T12:46:25.554Z,14.85
2019-03-28T12:49:21.227Z,14.75
2019-03-28T12:52:17.347Z,13.88
2019-03-28T12:55:13.544Z,14.35
2019-03-28T12:58:11.446Z,13.80
2019-03-28T13:01:08.958Z,12.40
2019-03-28T13:04:04.911Z,13.22
2019-03-28T13:07:01.175Z,11.60
2019-03-28T13:09:58.147Z,12.18
2019-03-28T13:12:54.428Z,12.03
2019-03-28T13:15:50.289Z,11.70
2019-03-28T13:19:16.144Z,11.18
2019-03-28T13:42:27.662Z,29.02
2019-03-28T13:46:32.632Z,29.32
2019-03-28T13:50:03.913Z,33.33
2019-03-28T13:53:53.801Z,31.57
2019-03-28T13:57:15.521Z,32.70
2019-03-28T14:00:10.510Z,31.70
2019-03-28T14:03:22.403Z,33.02
2019-03-28T14:06:18.241Z,32.08
2019-03-28T14:09:14.912Z,30.27
2019-03-28T14:12:11.935Z,32.50
2019-03-28T14:15:10.163Z,29.07
2019-03-28T14:18:07.504Z,29.80
2019-03-28T14:21:03.218Z,30.43
2019-03-28T14:23:59.085Z,29.65
2019-03-28T14:26:55.890Z,29.65
2019-03-28T14:29:55.848Z,29.00
2019-03-28T14:33:10.666Z,30.27
2019-03-28T14:35:57.902Z,29.42
2019-03-28T14:38:53.482Z,28.52
2019-03-28T14:41:53.398Z,30.23
2019-03-28T14:44:49.991Z,30.12
2019-03-28T14:47:54.054Z,29.23
2019-03-28T14:51:04.599Z,29.00
2019-03-28T14:54:04.155Z,27.67
2019-03-28T14:57:03.848Z,28.12
2019-03-28T15:00:07.397Z,28.00
2019-03-28T15:03:03.862Z,27.75
2019-03-28T15:06:00.867Z,28.62
2019-03-28T15:08:57.028Z,27.60
2019-03-28T15:11:55.884Z,28.42
2019-03-28T15:14:53.855Z,27.40
2019-03-28T15:17:54.522Z,27.67
2019-03-28T15:20:55.142Z,26.52
2019-03-28T15:23:53.258Z,27.90
2019-03-28T15:26:50.894Z,26.93
2019-03-28T15:29:48.856Z,26.85
2019-03-28T15:32:45.131Z,28.23
2019-03-28T15:35:42.014Z,26.95
2019-03-28T15:38:38.478Z,26.27
2019-03-28T15:41:35.916Z,25.25
2019-03-28T15:44:32.178Z,25.88
2019-03-28T15:47:29.693Z,25.80
2019-03-28T15:50:25.729Z,26.87
2019-03-28T15:53:25.374Z,25.37
2019-03-28T15:56:21.154Z,25.32
2019-03-28T15:59:17.296Z,25.30
2019-03-28T16:02:13.774Z,25.75
2019-03-28T16:05:11.294Z,25.90
2019-03-28T16:08:11.172Z,25.17
2019-03-28T16:11:10.034Z,25.92
2019-03-28T16:14:10.055Z,25.30
2019-03-28T16:17:12.570Z,24.87
2019-03-28T16:20:10.294Z,24.87
2019-03-28T16:23:06.429Z,25.45
2019-03-28T16:26:07.693Z,25.65
2019-03-28T16:29:03.870Z,23.27
2019-03-28T16:32:01.511Z,24.43
2019-03-28T16:35:01.398Z,25.10
2019-03-28T16:38:21.999Z,24.00
2019-03-28T16:41:50.161Z,24.00
2019-03-28T16:44:51.941Z,24.35
2019-03-28T16:47:57.544Z,24.25
2019-03-28T16:51:07.435Z,23.67
2019-03-28T16:54:21.625Z,22.90
2019-03-28T16:57:21.730Z,22.65
2019-03-28T17:00:28.286Z,22.75
2019-03-28T17:04:20.720Z,22.15
2019-03-28T17:07:19.975Z,22.52
2019-03-28T17:10:57.509Z,23.42
2019-03-28T17:18:35.652Z,22.00
2019-03-28T17:22:09.399Z,22.70
2019-03-28T17:25:15.054Z,21.65
2019-03-28T17:28:50.706Z,21.68
2019-03-28T17:32:37.204Z,21.90
2019-03-28T17:35:33.384Z,21.87
2019-03-28T17:38:31.644Z,20.55
2019-03-28T17:42:15.406Z,20.12
2019-03-28T18:14:44.996Z,16.65
2019-03-28T18:18:02.205Z,15.83
2019-03-28T18:26:21.911Z,15.20
